x

Buoy B01 - Western Maine Shelf (44030) Wave Buoy

10:04am - Tue 28th Mar 2017 All times are EDT. -4 hours from GMT.

  • Sig Wave height 3.6ft
  • Peak Period 8s
  • Wind
    7mph, 9mph gusts
  • Sea Temp 39°f
  • 空気 Temp 36°f
  • Sea Pressure 1017.1mb
  • Buoy B01 - Western Maine Shelf
  • Buoy B01 - Western Maine Shelf

More Historic Weather Station data

Upgrade to MSW Pro to gain access to the past 30 days of data for over 8000 Wavebouys and Weather Stations around the globe.

Join Pro

Comparision Forecast

View Surf forecast
   
Tue 03/28 10:04am 3.5ft 8s 7 9 mph 1017.1mb 39f 36f
9:04am 4ft 6s 7 9 mph 1017.4mb 39f 35f
8:04am 4.5ft 6s 9 13 mph 1016.9mb 39f 35f
7:04am 4.5ft 6s 11 13 mph 1016.3mb 39f 35f
6:04am 4.5ft 8s 9 11 mph 1016.4mb 39f 35f
5:04am 5ft 6s 13 16 mph 1016.1mb 39f 35f
4:04am 5ft 8s 11 13 mph 1016.4mb 39f 35f
3:04am 5ft 6s 11 13 mph 1016.5mb 39f 34f
2:04am 5.5ft 8s 11 13 mph 1016.8mb 39f 35f
1:04am 5.5ft 8s 11 16 mph 1016.9mb 39f 35f
12:04am 6ft 8s 13 16 mph 1016.5mb 39f 35f
Mon 03/27 11:04pm 6ft 8s 18 20 mph 1016.4mb 39f 35f
10:04pm 6ft 8s 18 20 mph 1016.5mb 39f 36f
9:04pm 7.5ft 8s 20 25 mph 1016.4mb 39f 36f
8:04pm 6ft 8s 22 27 mph 1016.2mb 39f 37f
7:04pm 6.5ft 8s 18 22 mph 1016mb 39f 38f
6:04pm 7ft 8s 13 18 mph 1016mb 39f 38f
5:04pm 7ft 8s 16 20 mph 1016mb 39f 39f
4:04pm 8ft 8s 18 22 mph 1016.6mb 39f 39f
3:04pm 7ft 6s 16 18 mph 1018mb 39f 39f
2:04pm 6.5ft 6s 13 16 mph 1019mb 39f 39f
1:04pm 5ft 5s 16 18 mph 1019.9mb 39f 39f
12:04pm 4.5ft 5s 18 22 mph 1020.6mb 39f 39f
11:04am 4.5ft 5s 13 16 mph 1021.8mb 39f 39f
10:04am 4.5ft 5s 16 18 mph 1022.6mb 39f 38f
9:04am 3.5ft 5s 16 20 mph 1023.3mb 39f 38f
8:04am 3.5ft 4s 18 20 mph 1024.2mb 39f 37f
7:04am 3.5ft 4s 16 18 mph 1025.1mb 39f 37f
6:04am 3ft 4s 16 18 mph 1025.6mb 39f 37f
5:04am 2.5ft 4s 16 20 mph 1026.5mb 39f 37f
4:04am 2.5ft 5s 16 18 mph 1027mb 39f 38f
3:04am 2ft 5s 13 16 mph 1027.6mb 39f 38f
2:04am 2.5ft 5s 11 13 mph 1027.9mb 39f 37f
1:04am 2.5ft 5s 11 13 mph 1028.8mb 39f 37f
12:04am 2.5ft 6s 11 13 mph 1029.8mb 39f 37f
Sun 03/26 11:04pm 2.5ft 6s 13 16 mph 1030.1mb 39f 37f
10:04pm 2.5ft 5s 11 16 mph 1030.6mb 39f 36f
9:04pm 3ft 6s 11 13 mph 1031.2mb 39f 36f
8:04pm 3.5ft 6s 9 11 mph 1031.7mb 39f 35f
7:04pm 3.5ft 6s 9 11 mph 1032.5mb 39f 35f
6:04pm 3.5ft 6s 9 11 mph 1032.8mb 39f 35f
5:04pm 3.5ft 6s 9 11 mph 1033mb 39f 35f
4:04pm 3.5ft 6s 9 11 mph 1033mb 39f 34f
3:04pm 3ft 5s 7 9 mph 1033.5mb 39f 34f
2:04pm 3ft 5s 9 11 mph 1034.2mb 39f 33f
1:04pm 3.5ft 5s 9 13 mph 1035mb 39f 33f
12:04pm 3.5ft 5s 11 16 mph 1035.1mb 39f 33f
11:04am 4ft 5s 16 18 mph 1035.2mb 39f 33f
10:04am 3.5ft 5s 18 20 mph 1034.7mb 39f 34f
9:04am 3.5ft 5s 18 22 mph 1034.3mb 39f 34f
8:04am 3.5ft 5s 20 22 mph 1034.3mb 39f 34f
7:04am 3.5ft 4s 18 22 mph 1034mb 39f 34f
6:04am 2.5ft 4s 18 22 mph 1033.2mb 39f 35f
5:04am 2.5ft 4s 20 22 mph 1032.4mb 39f 35f
4:04am 2.5ft 3s 18 22 mph 1031.6mb 39f 35f
3:04am 2ft 4s 16 20 mph 1031.6mb 39f 35f
2:04am 2.5ft 8s 18 20 mph 1030.9mb 39f 36f
1:04am 1.6ft 8s 16 20 mph 1030.5mb 39f 37f
12:04am 2ft 8s 9 11 mph 1030mb 39f 37f
Sat 03/25 11:04pm 1.6ft 8s 9 11 mph 1029.3mb 39f 37f
10:04pm 1.6ft 8s 9
mph
1028.7mb 39f 37f
9:04pm 2ft 8s 9 11 mph 1028mb 39f 37f
8:04pm 2.5ft 8s 11
mph
1027.2mb 39f 37f
7:04pm 1.6ft 8s 11 13 mph 1026mb 39f 37f
6:04pm 1.6ft 8s 11 13 mph 1025.9mb 39f 38f
5:04pm 0.3ft  -  9 11 mph 1025.3mb 39f 37f
4:04pm 1.6ft 8s 9 11 mph 1025mb 39f 36f
3:04pm 1.6ft 6s 11 13 mph 1025.2mb 39f 36f
2:04pm 1.6ft 6s 4 7 mph 1025.2mb 39f 37f
1:04pm 1.3ft 3s 7 9 mph 1024.7mb 39f 38f
12:04pm 1.6ft 5s 11 13 mph 1023.9mb 39f 38f
11:04am 2ft 5s 7 9 mph 1023.5mb 39f 37f
10:04am 2ft 5s 7 9 mph 1023.1mb 39f 37f
9:04am 2ft 6s 7 11 mph 1022.8mb 39f 38f
8:04am 2.5ft 6s 4
mph
1021.8mb 39f 37f
7:04am 2.5ft 6s 7 9 mph 1020.4mb 39f 37f
6:04am 2.5ft 6s 9
mph
1019.4mb 39f 37f
5:04am 2.5ft 5s 7 9 mph 1018.7mb 39f 37f
4:04am 3ft 6s 9 11 mph 1018.2mb 39f 37f
3:04am 3.5ft 6s 9
mph
1017.5mb 39f 38f
2:04am 3ft 6s 9 11 mph 1017.7mb 39f 38f
1:04am 3.5ft 6s 13 16 mph 1017.4mb 39f 38f
12:04am 3.5ft 6s 11 13 mph 1017.6mb 39f 38f
Fri 03/24 11:04pm 3.5ft 6s 11 13 mph 1017.3mb 39f 38f
10:04pm 4.5ft 6s 9
mph
1017.5mb 39f 39f
9:04pm 4.5ft 6s 9
mph
1017.7mb 39f 40f
8:04pm 4.5ft 6s 11 13 mph 1017.6mb 39f 40f